sensor_id;sensor_type;location;lat;lon;timestamp;P1;durP1;ratioP1;P2;durP2;ratioP2
77117;SDS011;66072;50.238;19.228;2023-03-19T00:02:13;23.50;;;13.30;;
77117;SDS011;66072;50.238;19.228;2023-03-19T00:04:44;17.90;;;11.00;;
77117;SDS011;66072;50.238;19.228;2023-03-19T00:07:13;18.60;;;10.60;;
77117;SDS011;66072;50.238;19.228;2023-03-19T00:09:41;22.90;;;11.60;;
77117;SDS011;66072;50.238;19.228;2023-03-19T00:12:10;19.50;;;10.10;;
77117;SDS011;66072;50.238;19.228;2023-03-19T00:14:37;18.00;;;10.10;;
77117;SDS011;66072;50.238;19.228;2023-03-19T00:17:05;19.80;;;9.80;;
77117;SDS011;66072;50.238;19.228;2023-03-19T00:19:33;16.00;;;10.10;;
77117;SDS011;66072;50.238;19.228;2023-03-19T00:22:00;17.40;;;10.70;;
77117;SDS011;66072;50.238;19.228;2023-03-19T00:24:28;19.40;;;11.10;;
77117;SDS011;66072;50.238;19.228;2023-03-19T00:26:56;21.00;;;12.30;;
77117;SDS011;66072;50.238;19.228;2023-03-19T00:29:23;22.20;;;11.60;;
77117;SDS011;66072;50.238;19.228;2023-03-19T00:31:51;22.30;;;12.00;;
77117;SDS011;66072;50.238;19.228;2023-03-19T00:34:19;23.20;;;13.20;;
77117;SDS011;66072;50.238;19.228;2023-03-19T00:36:46;26.00;;;13.30;;
77117;SDS011;66072;50.238;19.228;2023-03-19T00:39:14;21.90;;;13.10;;
77117;SDS011;66072;50.238;19.228;2023-03-19T00:41:42;18.80;;;11.90;;
77117;SDS011;66072;50.238;19.228;2023-03-19T00:44:09;23.70;;;13.10;;
77117;SDS011;66072;50.238;19.228;2023-03-19T00:46:37;26.20;;;14.30;;
77117;SDS011;66072;50.238;19.228;2023-03-19T00:49:04;26.80;;;15.60;;
77117;SDS011;66072;50.238;19.228;2023-03-19T00:51:32;29.00;;;16.90;;
77117;SDS011;66072;50.238;19.228;2023-03-19T00:53:59;31.50;;;17.00;;
77117;SDS011;66072;50.238;19.228;2023-03-19T00:56:27;30.80;;;15.80;;
77117;SDS011;66072;50.238;19.228;2023-03-19T00:58:55;29.20;;;16.20;;
77117;SDS011;66072;50.238;19.228;2023-03-19T01:01:23;34.10;;;17.10;;
77117;SDS011;66072;50.238;19.228;2023-03-19T01:03:51;31.20;;;17.60;;
77117;SDS011;66072;50.238;19.228;2023-03-19T01:06:18;26.10;;;15.90;;
77117;SDS011;66072;50.238;19.228;2023-03-19T01:08:46;30.80;;;16.00;;
77117;SDS011;66072;50.238;19.228;2023-03-19T01:11:14;27.50;;;16.40;;
77117;SDS011;66072;50.238;19.228;2023-03-19T01:13:42;29.50;;;17.10;;
77117;SDS011;66072;50.238;19.228;2023-03-19T01:16:09;29.20;;;16.00;;
77117;SDS011;66072;50.238;19.228;2023-03-19T01:18:37;27.40;;;16.50;;
77117;SDS011;66072;50.238;19.228;2023-03-19T01:21:05;29.40;;;18.00;;
77117;SDS011;66072;50.238;19.228;2023-03-19T01:23:32;29.80;;;17.30;;
77117;SDS011;66072;50.238;19.228;2023-03-19T01:26:00;26.10;;;16.00;;
77117;SDS011;66072;50.238;19.228;2023-03-19T01:28:29;30.90;;;17.90;;
77117;SDS011;66072;50.238;19.228;2023-03-19T01:30:57;32.90;;;19.40;;
77117;SDS011;66072;50.238;19.228;2023-03-19T01:33:26;31.10;;;19.80;;
77117;SDS011;66072;50.238;19.228;2023-03-19T01:35:54;33.60;;;20.60;;
77117;SDS011;66072;50.238;19.228;2023-03-19T01:38:21;31.30;;;17.70;;
77117;SDS011;66072;50.238;19.228;2023-03-19T01:40:49;34.40;;;19.30;;
77117;SDS011;66072;50.238;19.228;2023-03-19T01:43:21;35.00;;;18.50;;
77117;SDS011;66072;50.238;19.228;2023-03-19T01:45:51;30.50;;;16.60;;
77117;SDS011;66072;50.238;19.228;2023-03-19T01:48:28;30.10;;;17.80;;
77117;SDS011;66072;50.238;19.228;2023-03-19T01:51:04;32.50;;;18.30;;
77117;SDS011;66072;50.238;19.228;2023-03-19T01:53:34;30.40;;;17.20;;
77117;SDS011;66072;50.238;19.228;2023-03-19T01:56:15;32.60;;;17.90;;
77117;SDS011;66072;50.238;19.228;2023-03-19T01:58:46;30.40;;;17.10;;
77117;SDS011;66072;50.238;19.228;2023-03-19T02:01:18;36.40;;;18.80;;
77117;SDS011;66072;50.238;19.228;2023-03-19T02:03:46;37.80;;;19.80;;
77117;SDS011;66072;50.238;19.228;2023-03-19T02:06:16;38.10;;;20.40;;
77117;SDS011;66072;50.238;19.228;2023-03-19T02:08:46;32.00;;;18.00;;
77117;SDS011;66072;50.238;19.228;2023-03-19T02:11:15;29.80;;;16.40;;
77117;SDS011;66072;50.238;19.228;2023-03-19T02:13:45;30.40;;;18.20;;
77117;SDS011;66072;50.238;19.228;2023-03-19T02:16:13;26.70;;;14.50;;
77117;SDS011;66072;50.238;19.228;2023-03-19T02:18:41;31.10;;;16.50;;
77117;SDS011;66072;50.238;19.228;2023-03-19T02:21:14;27.80;;;16.20;;
77117;SDS011;66072;50.238;19.228;2023-03-19T02:23:50;30.60;;;15.10;;
77117;SDS011;66072;50.238;19.228;2023-03-19T02:26:26;30.80;;;16.50;;
77117;SDS011;66072;50.238;19.228;2023-03-19T02:28:56;34.30;;;18.00;;
77117;SDS011;66072;50.238;19.228;2023-03-19T02:31:24;33.20;;;18.90;;
77117;SDS011;66072;50.238;19.228;2023-03-19T02:33:58;35.90;;;19.70;;
77117;SDS011;66072;50.238;19.228;2023-03-19T02:36:32;36.10;;;20.30;;
77117;SDS011;66072;50.238;19.228;2023-03-19T02:39:10;36.90;;;19.70;;
77117;SDS011;66072;50.238;19.228;2023-03-19T02:41:50;39.60;;;21.30;;
77117;SDS011;66072;50.238;19.228;2023-03-19T02:44:19;42.70;;;23.10;;
77117;SDS011;66072;50.238;19.228;2023-03-19T02:46:47;41.40;;;24.20;;
77117;SDS011;66072;50.238;19.228;2023-03-19T02:49:14;39.80;;;22.40;;
77117;SDS011;66072;50.238;19.228;2023-03-19T02:51:42;35.50;;;21.20;;
77117;SDS011;66072;50.238;19.228;2023-03-19T02:54:09;31.40;;;17.10;;
77117;SDS011;66072;50.238;19.228;2023-03-19T02:56:37;43.40;;;23.80;;
77117;SDS011;66072;50.238;19.228;2023-03-19T02:59:05;40.40;;;23.20;;
77117;SDS011;66072;50.238;19.228;2023-03-19T03:01:32;43.40;;;25.20;;
77117;SDS011;66072;50.238;19.228;2023-03-19T03:04:00;48.60;;;26.10;;
77117;SDS011;66072;50.238;19.228;2023-03-19T03:06:27;40.70;;;24.40;;
77117;SDS011;66072;50.238;19.228;2023-03-19T03:08:55;36.70;;;22.90;;
77117;SDS011;66072;50.238;19.228;2023-03-19T03:11:23;31.10;;;19.80;;
77117;SDS011;66072;50.238;19.228;2023-03-19T03:13:50;33.20;;;18.50;;
77117;SDS011;66072;50.238;19.228;2023-03-19T03:16:18;39.00;;;21.00;;
77117;SDS011;66072;50.238;19.228;2023-03-19T03:18:45;33.90;;;21.70;;
77117;SDS011;66072;50.238;19.228;2023-03-19T03:21:13;37.30;;;21.10;;
77117;SDS011;66072;50.238;19.228;2023-03-19T03:23:41;31.60;;;17.60;;
77117;SDS011;66072;50.238;19.228;2023-03-19T03:26:08;35.10;;;19.90;;
77117;SDS011;66072;50.238;19.228;2023-03-19T03:28:36;36.50;;;22.30;;
77117;SDS011;66072;50.238;19.228;2023-03-19T03:31:04;34.70;;;19.70;;
77117;SDS011;66072;50.238;19.228;2023-03-19T03:33:32;33.20;;;19.20;;
77117;SDS011;66072;50.238;19.228;2023-03-19T03:35:59;32.70;;;21.30;;
77117;SDS011;66072;50.238;19.228;2023-03-19T03:38:27;36.40;;;17.50;;
77117;SDS011;66072;50.238;19.228;2023-03-19T03:40:54;33.60;;;19.20;;
77117;SDS011;66072;50.238;19.228;2023-03-19T03:43:22;38.40;;;21.60;;
77117;SDS011;66072;50.238;19.228;2023-03-19T03:45:51;36.90;;;22.00;;
77117;SDS011;66072;50.238;19.228;2023-03-19T03:48:18;43.00;;;20.60;;
77117;SDS011;66072;50.238;19.228;2023-03-19T03:50:46;45.10;;;22.50;;
77117;SDS011;66072;50.238;19.228;2023-03-19T03:53:13;42.20;;;22.30;;
77117;SDS011;66072;50.238;19.228;2023-03-19T03:55:41;43.50;;;22.10;;
77117;SDS011;66072;50.238;19.228;2023-03-19T03:58:09;39.20;;;20.70;;
77117;SDS011;66072;50.238;19.228;2023-03-19T04:00:37;45.10;;;22.50;;
77117;SDS011;66072;50.238;19.228;2023-03-19T04:03:05;40.70;;;23.90;;
77117;SDS011;66072;50.238;19.228;2023-03-19T04:05:32;19.90;;;10.30;;
77117;SDS011;66072;50.238;19.228;2023-03-19T04:08:00;44.20;;;23.90;;
77117;SDS011;66072;50.238;19.228;2023-03-19T04:10:28;47.90;;;25.00;;
77117;SDS011;66072;50.238;19.228;2023-03-19T04:12:56;48.70;;;25.10;;
77117;SDS011;66072;50.238;19.228;2023-03-19T04:15:23;44.40;;;24.20;;
77117;SDS011;66072;50.238;19.228;2023-03-19T04:17:51;43.80;;;25.50;;
77117;SDS011;66072;50.238;19.228;2023-03-19T04:20:19;38.60;;;21.50;;
77117;SDS011;66072;50.238;19.228;2023-03-19T04:22:46;40.00;;;21.40;;
77117;SDS011;66072;50.238;19.228;2023-03-19T04:25:14;41.10;;;20.40;;
77117;SDS011;66072;50.238;19.228;2023-03-19T04:27:41;38.10;;;21.20;;
77117;SDS011;66072;50.238;19.228;2023-03-19T04:30:09;42.80;;;22.70;;
77117;SDS011;66072;50.238;19.228;2023-03-19T04:32:38;44.60;;;23.40;;
77117;SDS011;66072;50.238;19.228;2023-03-19T04:35:06;39.40;;;22.60;;
77117;SDS011;66072;50.238;19.228;2023-03-19T04:37:33;35.30;;;21.40;;
77117;SDS011;66072;50.238;19.228;2023-03-19T04:40:01;40.60;;;21.70;;
77117;SDS011;66072;50.238;19.228;2023-03-19T04:42:29;45.80;;;23.90;;
77117;SDS011;66072;50.238;19.228;2023-03-19T04:44:56;38.80;;;23.40;;
77117;SDS011;66072;50.238;19.228;2023-03-19T04:47:24;36.70;;;21.20;;
77117;SDS011;66072;50.238;19.228;2023-03-19T04:49:52;42.80;;;21.70;;
77117;SDS011;66072;50.238;19.228;2023-03-19T04:52:19;43.20;;;24.60;;
77117;SDS011;66072;50.238;19.228;2023-03-19T04:54:47;46.60;;;25.30;;
77117;SDS011;66072;50.238;19.228;2023-03-19T04:57:15;42.30;;;25.40;;
77117;SDS011;66072;50.238;19.228;2023-03-19T04:59:42;51.00;;;25.10;;
77117;SDS011;66072;50.238;19.228;2023-03-19T05:02:10;49.80;;;28.50;;
77117;SDS011;66072;50.238;19.228;2023-03-19T05:04:37;51.80;;;27.20;;
77117;SDS011;66072;50.238;19.228;2023-03-19T05:07:05;45.40;;;25.00;;
77117;SDS011;66072;50.238;19.228;2023-03-19T05:09:33;54.90;;;28.50;;
77117;SDS011;66072;50.238;19.228;2023-03-19T05:12:00;45.80;;;25.40;;
77117;SDS011;66072;50.238;19.228;2023-03-19T05:14:28;48.50;;;25.30;;
77117;SDS011;66072;50.238;19.228;2023-03-19T05:16:56;54.30;;;27.80;;
77117;SDS011;66072;50.238;19.228;2023-03-19T05:19:23;40.60;;;22.70;;
77117;SDS011;66072;50.238;19.228;2023-03-19T05:21:51;43.00;;;22.90;;
77117;SDS011;66072;50.238;19.228;2023-03-19T05:24:19;34.70;;;20.80;;
77117;SDS011;66072;50.238;19.228;2023-03-19T05:26:46;45.50;;;22.20;;
77117;SDS011;66072;50.238;19.228;2023-03-19T05:29:14;38.40;;;23.30;;
77117;SDS011;66072;50.238;19.228;2023-03-19T05:31:42;36.90;;;22.60;;
77117;SDS011;66072;50.238;19.228;2023-03-19T05:34:09;40.30;;;20.90;;
77117;SDS011;66072;50.238;19.228;2023-03-19T05:36:37;39.80;;;22.10;;
77117;SDS011;66072;50.238;19.228;2023-03-19T05:39:04;38.00;;;21.90;;
77117;SDS011;66072;50.238;19.228;2023-03-19T05:41:32;38.00;;;21.30;;
77117;SDS011;66072;50.238;19.228;2023-03-19T05:44:00;39.10;;;21.90;;
77117;SDS011;66072;50.238;19.228;2023-03-19T05:46:27;41.00;;;21.40;;
77117;SDS011;66072;50.238;19.228;2023-03-19T05:48:55;39.80;;;22.00;;
77117;SDS011;66072;50.238;19.228;2023-03-19T05:51:22;33.50;;;20.50;;
77117;SDS011;66072;50.238;19.228;2023-03-19T05:53:50;37.30;;;21.10;;
77117;SDS011;66072;50.238;19.228;2023-03-19T05:56:18;34.90;;;21.50;;
77117;SDS011;66072;50.238;19.228;2023-03-19T05:58:45;33.60;;;20.30;;
77117;SDS011;66072;50.238;19.228;2023-03-19T06:01:13;38.50;;;23.00;;
77117;SDS011;66072;50.238;19.228;2023-03-19T06:03:41;35.50;;;23.30;;
77117;SDS011;66072;50.238;19.228;2023-03-19T06:06:08;34.60;;;22.20;;
77117;SDS011;66072;50.238;19.228;2023-03-19T06:08:36;37.80;;;23.10;;
77117;SDS011;66072;50.238;19.228;2023-03-19T06:11:04;31.10;;;18.50;;
77117;SDS011;66072;50.238;19.228;2023-03-19T06:13:32;30.90;;;19.80;;
77117;SDS011;66072;50.238;19.228;2023-03-19T06:16:00;34.60;;;21.30;;
77117;SDS011;66072;50.238;19.228;2023-03-19T06:18:28;37.80;;;21.10;;
77117;SDS011;66072;50.238;19.228;2023-03-19T06:20:55;31.00;;;19.10;;
77117;SDS011;66072;50.238;19.228;2023-03-19T06:23:23;33.50;;;21.00;;
77117;SDS011;66072;50.238;19.228;2023-03-19T06:25:51;32.40;;;20.30;;
77117;SDS011;66072;50.238;19.228;2023-03-19T06:28:18;31.90;;;20.10;;
77117;SDS011;66072;50.238;19.228;2023-03-19T06:30:46;35.10;;;20.20;;
77117;SDS011;66072;50.238;19.228;2023-03-19T06:33:14;36.40;;;21.20;;
77117;SDS011;66072;50.238;19.228;2023-03-19T06:35:41;35.00;;;21.80;;
77117;SDS011;66072;50.238;19.228;2023-03-19T06:38:09;39.80;;;23.80;;
77117;SDS011;66072;50.238;19.228;2023-03-19T06:40:36;37.70;;;21.40;;
77117;SDS011;66072;50.238;19.228;2023-03-19T06:43:04;38.30;;;21.40;;
77117;SDS011;66072;50.238;19.228;2023-03-19T06:45:32;37.80;;;21.30;;
77117;SDS011;66072;50.238;19.228;2023-03-19T06:48:00;34.00;;;19.90;;
77117;SDS011;66072;50.238;19.228;2023-03-19T06:50:27;30.70;;;18.50;;
77117;SDS011;66072;50.238;19.228;2023-03-19T06:52:55;35.20;;;18.40;;
77117;SDS011;66072;50.238;19.228;2023-03-19T06:55:23;29.40;;;16.20;;
77117;SDS011;66072;50.238;19.228;2023-03-19T06:57:51;23.40;;;13.20;;
77117;SDS011;66072;50.238;19.228;2023-03-19T07:00:19;21.90;;;11.60;;
77117;SDS011;66072;50.238;19.228;2023-03-19T07:02:47;21.90;;;12.40;;
77117;SDS011;66072;50.238;19.228;2023-03-19T07:05:15;17.90;;;10.50;;
77117;SDS011;66072;50.238;19.228;2023-03-19T07:07:42;16.80;;;9.00;;
77117;SDS011;66072;50.238;19.228;2023-03-19T07:10:10;16.70;;;10.90;;
77117;SDS011;66072;50.238;19.228;2023-03-19T07:12:38;16.00;;;10.40;;
77117;SDS011;66072;50.238;19.228;2023-03-19T07:15:06;22.20;;;12.70;;
77117;SDS011;66072;50.238;19.228;2023-03-19T07:17:34;17.80;;;10.90;;
77117;SDS011;66072;50.238;19.228;2023-03-19T07:20:02;17.40;;;9.30;;
77117;SDS011;66072;50.238;19.228;2023-03-19T07:22:30;16.90;;;10.60;;
77117;SDS011;66072;50.238;19.228;2023-03-19T07:24:58;15.20;;;8.80;;
77117;SDS011;66072;50.238;19.228;2023-03-19T07:27:25;13.00;;;8.30;;
77117;SDS011;66072;50.238;19.228;2023-03-19T07:29:53;15.60;;;8.80;;
77117;SDS011;66072;50.238;19.228;2023-03-19T07:32:21;14.40;;;8.40;;
77117;SDS011;66072;50.238;19.228;2023-03-19T07:34:49;12.70;;;7.80;;
77117;SDS011;66072;50.238;19.228;2023-03-19T07:37:17;12.70;;;7.80;;
77117;SDS011;66072;50.238;19.228;2023-03-19T07:39:49;13.40;;;7.90;;
77117;SDS011;66072;50.238;19.228;2023-03-19T07:42:16;13.40;;;7.90;;
77117;SDS011;66072;50.238;19.228;2023-03-19T07:44:44;14.30;;;8.70;;
77117;SDS011;66072;50.238;19.228;2023-03-19T07:47:12;9.40;;;5.80;;
77117;SDS011;66072;50.238;19.228;2023-03-19T07:49:58;12.70;;;7.30;;
77117;SDS011;66072;50.238;19.228;2023-03-19T07:52:26;10.70;;;6.70;;
77117;SDS011;66072;50.238;19.228;2023-03-19T07:54:54;13.70;;;8.40;;
77117;SDS011;66072;50.238;19.228;2023-03-19T07:57:21;10.70;;;7.20;;
77117;SDS011;66072;50.238;19.228;2023-03-19T07:59:49;12.20;;;6.80;;
77117;SDS011;66072;50.238;19.228;2023-03-19T08:02:17;9.90;;;6.40;;
77117;SDS011;66072;50.238;19.228;2023-03-19T08:04:49;10.90;;;5.90;;
77117;SDS011;66072;50.238;19.228;2023-03-19T08:07:17;9.60;;;6.00;;
77117;SDS011;66072;50.238;19.228;2023-03-19T08:09:45;10.90;;;5.70;;
77117;SDS011;66072;50.238;19.228;2023-03-19T08:12:13;8.90;;;5.70;;
77117;SDS011;66072;50.238;19.228;2023-03-19T08:14:41;10.40;;;5.70;;
77117;SDS011;66072;50.238;19.228;2023-03-19T08:17:08;12.80;;;7.00;;
77117;SDS011;66072;50.238;19.228;2023-03-19T08:19:36;10.30;;;6.20;;
77117;SDS011;66072;50.238;19.228;2023-03-19T08:22:04;8.80;;;5.10;;
77117;SDS011;66072;50.238;19.228;2023-03-19T08:24:32;6.60;;;4.00;;
77117;SDS011;66072;50.238;19.228;2023-03-19T08:26:59;10.30;;;6.20;;
77117;SDS011;66072;50.238;19.228;2023-03-19T08:29:27;7.60;;;4.70;;
77117;SDS011;66072;50.238;19.228;2023-03-19T08:31:55;8.20;;;4.70;;
77117;SDS011;66072;50.238;19.228;2023-03-19T08:34:23;10.50;;;6.10;;
77117;SDS011;66072;50.238;19.228;2023-03-19T08:36:51;6.00;;;3.30;;
77117;SDS011;66072;50.238;19.228;2023-03-19T08:39:19;8.30;;;4.60;;
77117;SDS011;66072;50.238;19.228;2023-03-19T08:41:46;7.90;;;5.00;;
77117;SDS011;66072;50.238;19.228;2023-03-19T08:44:15;8.90;;;5.30;;
77117;SDS011;66072;50.238;19.228;2023-03-19T08:46:42;8.00;;;4.90;;
77117;SDS011;66072;50.238;19.228;2023-03-19T08:49:11;8.80;;;4.80;;
77117;SDS011;66072;50.238;19.228;2023-03-19T08:51:38;6.20;;;2.90;;
77117;SDS011;66072;50.238;19.228;2023-03-19T08:54:06;6.60;;;4.50;;
77117;SDS011;66072;50.238;19.228;2023-03-19T08:56:33;8.00;;;5.10;;
77117;SDS011;66072;50.238;19.228;2023-03-19T08:59:01;8.50;;;5.40;;
77117;SDS011;66072;50.238;19.228;2023-03-19T09:01:29;5.90;;;3.80;;
77117;SDS011;66072;50.238;19.228;2023-03-19T09:03:57;8.10;;;5.50;;
77117;SDS011;66072;50.238;19.228;2023-03-19T09:06:24;9.90;;;4.90;;
77117;SDS011;66072;50.238;19.228;2023-03-19T09:08:52;5.30;;;3.50;;
77117;SDS011;66072;50.238;19.228;2023-03-19T09:11:20;8.00;;;4.80;;
77117;SDS011;66072;50.238;19.228;2023-03-19T09:13:48;7.90;;;4.40;;
77117;SDS011;66072;50.238;19.228;2023-03-19T09:16:16;9.70;;;6.40;;
77117;SDS011;66072;50.238;19.228;2023-03-19T09:18:44;8.70;;;5.70;;
77117;SDS011;66072;50.238;19.228;2023-03-19T09:21:11;8.10;;;5.30;;
77117;SDS011;66072;50.238;19.228;2023-03-19T09:23:39;9.50;;;5.70;;
77117;SDS011;66072;50.238;19.228;2023-03-19T09:26:07;8.60;;;5.60;;
77117;SDS011;66072;50.238;19.228;2023-03-19T09:28:34;9.80;;;6.60;;
77117;SDS011;66072;50.238;19.228;2023-03-19T09:31:02;9.20;;;6.20;;
77117;SDS011;66072;50.238;19.228;2023-03-19T09:33:30;8.60;;;6.30;;
77117;SDS011;66072;50.238;19.228;2023-03-19T09:35:57;9.90;;;5.40;;
77117;SDS011;66072;50.238;19.228;2023-03-19T09:38:25;7.60;;;5.80;;
77117;SDS011;66072;50.238;19.228;2023-03-19T09:41:05;8.20;;;5.60;;
77117;SDS011;66072;50.238;19.228;2023-03-19T09:46:13;8.20;;;5.90;;
77117;SDS011;66072;50.238;19.228;2023-03-19T09:51:35;10.00;;;7.00;;
77117;SDS011;66072;50.238;19.228;2023-03-19T09:54:21;9.00;;;6.30;;
77117;SDS011;66072;50.238;19.228;2023-03-19T09:56:52;12.00;;;7.60;;
77117;SDS011;66072;50.238;19.228;2023-03-19T09:59:21;11.10;;;6.70;;
77117;SDS011;66072;50.238;19.228;2023-03-19T10:01:56;9.00;;;6.40;;
77117;SDS011;66072;50.238;19.228;2023-03-19T10:04:36;9.20;;;6.00;;
77117;SDS011;66072;50.238;19.228;2023-03-19T10:12:47;7.90;;;5.70;;
77117;SDS011;66072;50.238;19.228;2023-03-19T10:15:35;8.20;;;5.50;;
77117;SDS011;66072;50.238;19.228;2023-03-19T10:18:05;10.40;;;6.30;;
77117;SDS011;66072;50.238;19.228;2023-03-19T10:23:16;8.00;;;5.80;;
77117;SDS011;66072;50.238;19.228;2023-03-19T10:25:55;8.90;;;5.90;;
77117;SDS011;66072;50.238;19.228;2023-03-19T10:28:25;8.00;;;6.20;;
77117;SDS011;66072;50.238;19.228;2023-03-19T10:31:08;9.80;;;6.70;;
77117;SDS011;66072;50.238;19.228;2023-03-19T10:33:50;9.50;;;6.00;;
77117;SDS011;66072;50.238;19.228;2023-03-19T10:36:40;8.70;;;6.40;;
77117;SDS011;66072;50.238;19.228;2023-03-19T10:39:08;8.30;;;6.10;;
77117;SDS011;66072;50.238;19.228;2023-03-19T10:44:09;7.70;;;5.10;;
77117;SDS011;66072;50.238;19.228;2023-03-19T10:46:43;9.90;;;7.10;;
77117;SDS011;66072;50.238;19.228;2023-03-19T10:49:11;9.20;;;6.80;;
77117;SDS011;66072;50.238;19.228;2023-03-19T10:51:46;10.00;;;6.80;;
77117;SDS011;66072;50.238;19.228;2023-03-19T10:54:18;10.20;;;7.60;;
77117;SDS011;66072;50.238;19.228;2023-03-19T10:56:48;9.90;;;7.20;;
77117;SDS011;66072;50.238;19.228;2023-03-19T10:59:21;9.40;;;7.40;;
77117;SDS011;66072;50.238;19.228;2023-03-19T11:01:49;11.40;;;8.10;;
77117;SDS011;66072;50.238;19.228;2023-03-19T11:04:23;8.60;;;6.20;;
77117;SDS011;66072;50.238;19.228;2023-03-19T11:06:53;10.00;;;6.90;;
77117;SDS011;66072;50.238;19.228;2023-03-19T11:09:32;11.30;;;8.10;;
77117;SDS011;66072;50.238;19.228;2023-03-19T11:14:59;10.00;;;7.90;;
77117;SDS011;66072;50.238;19.228;2023-03-19T11:17:34;9.60;;;7.50;;
77117;SDS011;66072;50.238;19.228;2023-03-19T11:22:50;9.30;;;7.50;;
77117;SDS011;66072;50.238;19.228;2023-03-19T11:28:02;9.10;;;7.00;;
77117;SDS011;66072;50.238;19.228;2023-03-19T11:36:25;8.70;;;6.80;;
77117;SDS011;66072;50.238;19.228;2023-03-19T11:47:14;8.90;;;7.00;;
77117;SDS011;66072;50.238;19.228;2023-03-19T11:53:02;8.60;;;7.20;;
77117;SDS011;66072;50.238;19.228;2023-03-19T11:55:45;8.60;;;6.50;;
77117;SDS011;66072;50.238;19.228;2023-03-19T12:00:50;7.70;;;6.80;;
77117;SDS011;66072;50.238;19.228;2023-03-19T12:09:03;8.40;;;6.50;;
77117;SDS011;66072;50.238;19.228;2023-03-19T12:20:17;7.30;;;6.10;;
77117;SDS011;66072;50.238;19.228;2023-03-19T12:28:30;7.60;;;5.60;;
77117;SDS011;66072;50.238;19.228;2023-03-19T12:31:14;7.90;;;5.50;;
77117;SDS011;66072;50.238;19.228;2023-03-19T12:36:46;8.50;;;6.10;;
77117;SDS011;66072;50.238;19.228;2023-03-19T12:39:36;8.80;;;5.80;;
77117;SDS011;66072;50.238;19.228;2023-03-19T12:42:09;7.50;;;5.80;;
77117;SDS011;66072;50.238;19.228;2023-03-19T12:44:43;7.80;;;5.70;;
77117;SDS011;66072;50.238;19.228;2023-03-19T12:47:16;7.00;;;5.20;;
77117;SDS011;66072;50.238;19.228;2023-03-19T12:49:53;7.70;;;5.40;;
77117;SDS011;66072;50.238;19.228;2023-03-19T12:55:11;5.50;;;4.20;;
77117;SDS011;66072;50.238;19.228;2023-03-19T13:00:20;6.40;;;4.90;;
77117;SDS011;66072;50.238;19.228;2023-03-19T13:02:58;5.80;;;4.60;;
77117;SDS011;66072;50.238;19.228;2023-03-19T13:05:35;8.40;;;4.60;;
77117;SDS011;66072;50.238;19.228;2023-03-19T13:10:40;6.90;;;4.60;;
77117;SDS011;66072;50.238;19.228;2023-03-19T13:13:21;6.50;;;4.50;;
77117;SDS011;66072;50.238;19.228;2023-03-19T13:16:02;7.30;;;4.80;;
77117;SDS011;66072;50.238;19.228;2023-03-19T13:18:47;5.90;;;4.30;;
77117;SDS011;66072;50.238;19.228;2023-03-19T13:21:29;6.70;;;4.40;;
77117;SDS011;66072;50.238;19.228;2023-03-19T13:26:50;6.00;;;4.60;;
77117;SDS011;66072;50.238;19.228;2023-03-19T13:29:22;6.50;;;4.50;;
77117;SDS011;66072;50.238;19.228;2023-03-19T13:31:52;6.70;;;4.90;;
77117;SDS011;66072;50.238;19.228;2023-03-19T13:34:30;7.10;;;4.10;;
77117;SDS011;66072;50.238;19.228;2023-03-19T13:39:47;6.40;;;5.10;;
77117;SDS011;66072;50.238;19.228;2023-03-19T13:45:02;7.80;;;5.10;;
77117;SDS011;66072;50.238;19.228;2023-03-19T13:47:50;8.40;;;4.30;;
77117;SDS011;66072;50.238;19.228;2023-03-19T13:52:47;8.00;;;4.60;;
77117;SDS011;66072;50.238;19.228;2023-03-19T14:03:24;7.70;;;4.70;;
77117;SDS011;66072;50.238;19.228;2023-03-19T14:05:54;8.20;;;4.80;;
77117;SDS011;66072;50.238;19.228;2023-03-19T14:08:43;6.50;;;3.90;;
77117;SDS011;66072;50.238;19.228;2023-03-19T14:11:20;8.40;;;5.10;;
77117;SDS011;66072;50.238;19.228;2023-03-19T14:13:51;6.10;;;4.80;;
77117;SDS011;66072;50.238;19.228;2023-03-19T14:16:30;5.80;;;4.20;;
77117;SDS011;66072;50.238;19.228;2023-03-19T14:19:01;6.10;;;4.20;;
77117;SDS011;66072;50.238;19.228;2023-03-19T14:21:42;6.50;;;4.80;;
77117;SDS011;66072;50.238;19.228;2023-03-19T14:27:21;6.10;;;4.70;;
77117;SDS011;66072;50.238;19.228;2023-03-19T14:29:58;7.10;;;4.90;;
77117;SDS011;66072;50.238;19.228;2023-03-19T14:32:35;8.00;;;4.90;;
77117;SDS011;66072;50.238;19.228;2023-03-19T14:35:06;6.00;;;5.00;;
77117;SDS011;66072;50.238;19.228;2023-03-19T14:37:49;7.70;;;5.80;;
77117;SDS011;66072;50.238;19.228;2023-03-19T14:40:19;7.70;;;5.30;;
77117;SDS011;66072;50.238;19.228;2023-03-19T14:42:57;8.30;;;6.60;;
77117;SDS011;66072;50.238;19.228;2023-03-19T14:54:30;7.50;;;5.20;;
77117;SDS011;66072;50.238;19.228;2023-03-19T14:57:20;7.30;;;4.90;;
77117;SDS011;66072;50.238;19.228;2023-03-19T14:59:52;7.80;;;4.70;;
77117;SDS011;66072;50.238;19.228;2023-03-19T15:02:39;7.40;;;5.00;;
77117;SDS011;66072;50.238;19.228;2023-03-19T15:07:47;7.10;;;4.30;;
77117;SDS011;66072;50.238;19.228;2023-03-19T15:10:18;7.70;;;4.50;;
77117;SDS011;66072;50.238;19.228;2023-03-19T15:15:35;9.10;;;4.90;;
77117;SDS011;66072;50.238;19.228;2023-03-19T15:18:22;8.00;;;5.00;;
77117;SDS011;66072;50.238;19.228;2023-03-19T15:20:52;6.40;;;5.00;;
77117;SDS011;66072;50.238;19.228;2023-03-19T15:23:24;8.60;;;4.80;;
77117;SDS011;66072;50.238;19.228;2023-03-19T15:25:55;7.00;;;4.90;;
77117;SDS011;66072;50.238;19.228;2023-03-19T15:28:25;7.10;;;5.00;;
77117;SDS011;66072;50.238;19.228;2023-03-19T15:30:57;8.00;;;5.20;;
77117;SDS011;66072;50.238;19.228;2023-03-19T15:33:50;8.50;;;5.30;;
77117;SDS011;66072;50.238;19.228;2023-03-19T15:36:22;7.20;;;5.60;;
77117;SDS011;66072;50.238;19.228;2023-03-19T15:38:55;9.70;;;5.60;;
77117;SDS011;66072;50.238;19.228;2023-03-19T15:41:27;7.40;;;5.40;;
77117;SDS011;66072;50.238;19.228;2023-03-19T15:43:58;8.10;;;5.20;;
77117;SDS011;66072;50.238;19.228;2023-03-19T15:46:29;7.10;;;5.20;;
77117;SDS011;66072;50.238;19.228;2023-03-19T15:49:04;10.00;;;5.30;;
77117;SDS011;66072;50.238;19.228;2023-03-19T15:51:54;7.10;;;4.90;;
77117;SDS011;66072;50.238;19.228;2023-03-19T15:54:27;6.60;;;4.80;;
77117;SDS011;66072;50.238;19.228;2023-03-19T15:56:55;7.50;;;4.40;;
77117;SDS011;66072;50.238;19.228;2023-03-19T15:59:23;7.50;;;4.80;;
77117;SDS011;66072;50.238;19.228;2023-03-19T16:01:56;8.00;;;4.90;;
77117;SDS011;66072;50.238;19.228;2023-03-19T16:04:26;10.60;;;7.00;;
77117;SDS011;66072;50.238;19.228;2023-03-19T16:06:56;14.30;;;8.40;;
77117;SDS011;66072;50.238;19.228;2023-03-19T16:09:30;13.60;;;7.40;;
77117;SDS011;66072;50.238;19.228;2023-03-19T16:11:59;10.30;;;7.50;;
77117;SDS011;66072;50.238;19.228;2023-03-19T16:17:02;11.90;;;7.50;;
77117;SDS011;66072;50.238;19.228;2023-03-19T16:19:46;9.20;;;7.30;;
77117;SDS011;66072;50.238;19.228;2023-03-19T16:22:26;15.00;;;7.70;;
77117;SDS011;66072;50.238;19.228;2023-03-19T16:24:57;11.60;;;7.60;;
77117;SDS011;66072;50.238;19.228;2023-03-19T16:27:43;13.40;;;7.70;;
77117;SDS011;66072;50.238;19.228;2023-03-19T16:30:20;13.00;;;7.60;;
77117;SDS011;66072;50.238;19.228;2023-03-19T16:32:57;13.10;;;7.40;;
77117;SDS011;66072;50.238;19.228;2023-03-19T16:35:26;16.30;;;7.90;;